Time;durP1;ratioP1;P1;durP2;ratioP2;P2;SDS_P1;SDS_P2;PMS_P1;PMS_P2;Temp;Humidity;BMP_temperature;BMP_pressure;BME280_temperature;BME280_humidity;BME280_pressure;Samples;Min_cycle;Max_cycle;Signal;HPM_P1;HPM_P2
2023/06/06 00:01:18;;;;;;;5.97;3.45;;;15.90;96.70;;;;;;5070932;28;20048;-41
2023/06/06 00:03:44;;;;;;;5.88;2.95;;;15.90;97.70;;;;;;5071271;28;20019;-41
2023/06/06 00:06:13;;;;;;;5.28;3.17;;;15.90;98.50;;;;;;5069928;28;20016;-42
2023/06/06 00:08:41;;;;;;;4.57;3.17;;;15.80;98.40;;;;;;5070714;28;20112;-41
2023/06/06 00:11:07;;;;;;;3.75;2.88;;;15.80;99.30;;;;;;5062984;28;20025;-41
2023/06/06 00:13:36;;;;;;;7.35;3.38;;;15.70;99.60;;;;;;5069473;28;20042;-41
2023/06/06 00:16:03;;;;;;;6.00;3.28;;;15.70;99.90;;;;;;5071428;28;20069;-41
2023/06/06 00:18:31;;;;;;;7.65;3.97;;;15.60;99.90;;;;;;5070532;28;20094;-41
2023/06/06 00:20:58;;;;;;;4.85;2.65;;;15.50;99.90;;;;;;5069489;28;20063;-41
2023/06/06 00:23:24;;;;;;;3.47;3.10;;;15.50;99.90;;;;;;5070593;28;20449;-41
2023/06/06 00:25:52;;;;;;;4.57;3.20;;;15.40;99.90;;;;;;5069444;28;20470;-41
2023/06/06 00:28:20;;;;;;;5.47;3.08;;;15.40;99.90;;;;;;5070329;28;20504;-41
2023/06/06 00:30:46;;;;;;;5.57;3.28;;;15.30;99.90;;;;;;5070592;28;20025;-41
2023/06/06 00:33:14;;;;;;;6.93;3.03;;;15.30;99.90;;;;;;5052585;28;20025;-41
2023/06/06 00:35:42;;;;;;;3.97;3.25;;;15.20;99.90;;;;;;5069130;28;20598;-41
2023/06/06 00:38:07;;;;;;;6.97;3.28;;;15.20;99.90;;;;;;5070480;28;20025;-41
2023/06/06 00:40:34;;;;;;;8.20;3.67;;;15.10;99.90;;;;;;5068553;28;20031;-41
2023/06/06 00:43:02;;;;;;;4.13;3.20;;;15.10;99.90;;;;;;5070368;28;20105;-42
2023/06/06 00:45:28;;;;;;;5.45;3.08;;;15.10;99.90;;;;;;5068842;28;20198;-41
2023/06/06 00:47:54;;;;;;;6.32;3.13;;;15.10;99.90;;;;;;5068885;28;20013;-41
2023/06/06 00:50:21;;;;;;;3.30;2.65;;;15.00;99.90;;;;;;5069797;28;20044;-41
2023/06/06 00:52:49;;;;;;;7.63;3.35;;;15.00;99.90;;;;;;5068746;28;20541;-42
2023/06/06 00:55:17;;;;;;;4.57;3.08;;;15.00;99.90;;;;;;5068670;28;20522;-41
2023/06/06 00:57:46;;;;;;;6.07;3.05;;;15.00;99.90;;;;;;5070022;28;20470;-41
2023/06/06 01:00:15;;;;;;;6.05;3.08;;;14.90;99.90;;;;;;5068562;28;20036;-41
2023/06/06 01:02:43;;;;;;;6.32;3.10;;;14.90;99.90;;;;;;5068901;28;20020;-42
2023/06/06 01:05:10;;;;;;;4.65;2.92;;;14.90;99.90;;;;;;5069012;28;20070;-42
2023/06/06 01:07:36;;;;;;;7.68;3.22;;;14.90;99.90;;;;;;5070036;28;20029;-42
2023/06/06 01:10:09;;;;;;;5.43;3.10;;;14.90;99.90;;;;;;5068173;28;20271;-44
2023/06/06 01:12:47;;;;;;;5.82;3.83;;;14.80;99.90;;;;;;5070034;28;20024;-42
2023/06/06 01:15:25;;;;;;;6.68;3.30;;;14.80;99.90;;;;;;5070017;28;20275;-43
2023/06/06 01:17:51;;;;;;;4.53;3.00;;;14.70;99.90;;;;;;5060504;28;20024;-41
2023/06/06 01:20:19;;;;;;;4.93;3.08;;;14.70;99.90;;;;;;5067984;28;20096;-45
2023/06/06 01:22:46;;;;;;;4.20;3.10;;;14.70;99.90;;;;;;5059746;28;20235;-45
2023/06/06 01:25:19;;;;;;;5.25;3.22;;;14.70;99.90;;;;;;5061459;28;20110;-42
2023/06/06 01:27:46;;;;;;;7.25;3.35;;;14.70;99.90;;;;;;5068283;28;20108;-42
2023/06/06 01:30:12;;;;;;;7.75;3.35;;;14.70;99.90;;;;;;5067926;28;20029;-41
2023/06/06 01:32:56;;;;;;;3.35;2.67;;;14.60;99.90;;;;;;5061108;28;20108;-41
2023/06/06 01:35:32;;;;;;;4.95;3.40;;;14.60;99.90;;;;;;5061567;28;20389;-42
2023/06/06 01:38:17;;;;;;;3.83;3.05;;;14.60;99.90;;;;;;5062631;28;20104;-43
2023/06/06 01:40:46;;;;;;;6.18;3.25;;;14.60;99.90;;;;;;5069129;28;20398;-42
2023/06/06 01:43:15;;;;;;;6.25;2.92;;;14.50;99.90;;;;;;5068094;28;20136;-42
2023/06/06 01:45:42;;;;;;;5.78;3.50;;;14.50;99.90;;;;;;5058975;28;20017;-42
2023/06/06 01:48:08;;;;;;;8.38;3.67;;;14.40;99.90;;;;;;5064306;28;20044;-42
2023/06/06 01:50:34;;;;;;;4.70;2.97;;;14.40;99.90;;;;;;5060797;28;20028;-41
2023/06/06 01:53:00;;;;;;;5.78;3.50;;;14.30;99.90;;;;;;5068845;28;20017;-41
2023/06/06 01:55:26;;;;;;;5.32;3.58;;;14.30;99.90;;;;;;5069007;28;20065;-41
2023/06/06 01:57:53;;;;;;;3.92;3.33;;;14.30;99.90;;;;;;5063899;28;20125;-41
2023/06/06 02:00:20;;;;;;;6.95;3.42;;;14.30;99.90;;;;;;5055969;28;20556;-41
2023/06/06 02:02:46;;;;;;;5.15;3.80;;;14.30;99.90;;;;;;5067660;28;20390;-41
2023/06/06 02:05:12;;;;;;;8.15;3.58;;;14.20;99.90;;;;;;5069069;28;20021;-41
2023/06/06 02:07:37;;;;;;;5.80;3.50;;;14.20;99.90;;;;;;5068522;28;20027;-40
2023/06/06 02:10:07;;;;;;;5.03;3.50;;;14.10;99.90;;;;;;5061609;28;20013;-41
2023/06/06 02:12:33;;;;;;;3.83;3.17;;;14.10;99.90;;;;;;5057311;28;20099;-42
2023/06/06 02:15:00;;;;;;;4.95;3.42;;;14.10;99.90;;;;;;5047237;28;20160;-41
2023/06/06 02:17:26;;;;;;;4.53;3.08;;;14.10;99.90;;;;;;5048122;28;20136;-41
2023/06/06 02:19:52;;;;;;;8.35;3.35;;;14.00;99.90;;;;;;5047884;28;20360;-41
2023/06/06 02:22:17;;;;;;;5.75;3.10;;;14.10;99.90;;;;;;5048863;28;20016;-42
2023/06/06 02:24:49;;;;;;;4.60;3.50;;;14.00;99.90;;;;;;5051005;28;20032;-42
2023/06/06 02:27:15;;;;;;;6.97;3.67;;;14.00;99.90;;;;;;5053024;28;20021;-41
2023/06/06 02:29:41;;;;;;;4.78;3.33;;;14.00;99.90;;;;;;5046969;28;20382;-41
2023/06/06 02:32:06;;;;;;;5.40;3.25;;;13.90;99.90;;;;;;5055596;28;20037;-41
2023/06/06 02:34:32;;;;;;;4.25;3.08;;;13.90;99.90;;;;;;5056412;28;20035;-41
2023/06/06 02:36:59;;;;;;;6.10;3.55;;;13.90;99.90;;;;;;5053524;28;20017;-41
2023/06/06 02:39:26;;;;;;;5.80;3.53;;;13.90;99.90;;;;;;5047066;28;20028;-41
2023/06/06 02:41:52;;;;;;;8.32;3.40;;;13.90;99.90;;;;;;5053271;28;20267;-41
2023/06/06 02:44:19;;;;;;;5.40;3.50;;;13.90;99.90;;;;;;5057683;28;20208;-41
2023/06/06 02:46:45;;;;;;;5.90;3.47;;;14.00;99.90;;;;;;5055809;28;20063;-42
2023/06/06 02:49:11;;;;;;;6.75;4.50;;;13.90;99.90;;;;;;5056841;28;20401;-41
2023/06/06 02:51:36;;;;;;;5.35;3.28;;;13.90;99.90;;;;;;5059000;28;20099;-41
2023/06/06 02:54:02;;;;;;;6.00;3.58;;;13.90;99.90;;;;;;5058130;28;20418;-41
2023/06/06 02:56:28;;;;;;;4.53;3.78;;;13.90;99.90;;;;;;5057644;28;20013;-41
2023/06/06 02:58:55;;;;;;;7.75;4.40;;;13.90;99.90;;;;;;5054545;28;20116;-41
2023/06/06 03:01:25;;;;;;;7.03;3.70;;;13.90;99.90;;;;;;5056342;28;20049;-41
2023/06/06 03:03:51;;;;;;;6.68;3.65;;;13.80;99.90;;;;;;5056740;28;20377;-41
2023/06/06 03:06:18;;;;;;;4.07;3.17;;;13.80;99.90;;;;;;5055416;28;20066;-41
2023/06/06 03:08:47;;;;;;;5.70;3.25;;;13.80;99.90;;;;;;5056892;28;20483;-42
2023/06/06 03:11:13;;;;;;;4.35;3.28;;;13.70;99.90;;;;;;5057266;28;20025;-41
2023/06/06 03:13:39;;;;;;;6.30;3.70;;;13.70;99.90;;;;;;5057219;28;20032;-41
2023/06/06 03:16:05;;;;;;;3.97;3.28;;;13.70;99.90;;;;;;5055476;28;20024;-41
2023/06/06 03:18:32;;;;;;;4.78;3.38;;;13.70;99.90;;;;;;5054875;28;20510;-41
2023/06/06 03:20:58;;;;;;;6.45;3.40;;;13.70;99.90;;;;;;5056906;28;20067;-41
2023/06/06 03:23:23;;;;;;;5.22;3.30;;;13.70;99.90;;;;;;5054168;28;20507;-40
2023/06/06 03:25:51;;;;;;;5.97;3.80;;;13.70;99.90;;;;;;5056454;28;20502;-41
2023/06/06 03:28:18;;;;;;;6.00;3.20;;;13.70;99.90;;;;;;5057933;28;20024;-40
2023/06/06 03:30:47;;;;;;;5.13;3.92;;;13.70;99.90;;;;;;5055266;28;20025;-40
2023/06/06 03:33:13;;;;;;;4.53;3.75;;;13.70;99.90;;;;;;5056570;28;20103;-41
2023/06/06 03:35:39;;;;;;;4.13;3.47;;;13.80;99.90;;;;;;5055711;28;20548;-41
2023/06/06 03:38:05;;;;;;;4.55;3.42;;;13.80;99.90;;;;;;5057686;28;20020;-40
2023/06/06 03:40:31;;;;;;;7.50;3.67;;;13.90;99.90;;;;;;5055058;28;20509;-40
2023/06/06 03:42:57;;;;;;;7.10;3.95;;;13.90;99.90;;;;;;5056711;28;20509;-41
2023/06/06 03:45:23;;;;;;;5.55;4.03;;;14.00;99.90;;;;;;5058463;28;20096;-40
2023/06/06 03:47:49;;;;;;;6.22;3.70;;;14.00;99.90;;;;;;5058130;28;20111;-40
2023/06/06 03:50:15;;;;;;;6.65;3.67;;;14.00;99.90;;;;;;5058418;28;20324;-40
2023/06/06 03:52:41;;;;;;;4.93;3.72;;;14.10;99.90;;;;;;5059990;28;20017;-41
2023/06/06 03:55:09;;;;;;;5.47;3.42;;;14.10;99.90;;;;;;5064549;28;20033;-40
2023/06/06 03:57:36;;;;;;;5.25;3.70;;;14.10;99.90;;;;;;5054013;28;20112;-41
2023/06/06 04:00:11;;;;;;;5.35;3.95;;;14.10;99.90;;;;;;5062344;28;20056;-40
2023/06/06 04:02:40;;;;;;;5.18;3.65;;;14.00;99.90;;;;;;5053768;28;20025;-40
2023/06/06 04:05:10;;;;;;;5.00;3.63;;;14.00;99.90;;;;;;5051529;28;20374;-40
2023/06/06 04:07:36;;;;;;;5.05;3.75;;;14.00;99.90;;;;;;5051367;28;20494;-40
2023/06/06 04:10:02;;;;;;;4.75;3.67;;;14.10;99.90;;;;;;5049630;28;20029;-40
2023/06/06 04:12:28;;;;;;;7.35;4.32;;;14.00;99.90;;;;;;5051009;28;20017;-40
2023/06/06 04:14:54;;;;;;;5.97;3.58;;;14.10;99.90;;;;;;5049329;28;20028;-40
2023/06/06 04:17:20;;;;;;;5.95;4.00;;;14.10;99.90;;;;;;5050666;28;20470;-41
2023/06/06 04:19:47;;;;;;;4.78;3.30;;;14.10;99.90;;;;;;5050153;28;20130;-42
2023/06/06 04:22:14;;;;;;;7.13;3.40;;;14.10;99.90;;;;;;5051462;28;20028;-41
2023/06/06 04:24:40;;;;;;;6.00;3.80;;;14.10;99.90;;;;;;5059230;28;20082;-41
2023/06/06 04:27:07;;;;;;;8.45;3.63;;;14.10;99.90;;;;;;5060662;28;20095;-40
2023/06/06 04:29:34;;;;;;;5.10;3.85;;;14.10;99.90;;;;;;5059103;28;20109;-41
2023/06/06 04:32:03;;;;;;;7.10;3.72;;;14.10;99.90;;;;;;5061179;28;20028;-40
2023/06/06 04:34:30;;;;;;;6.57;4.22;;;14.10;99.90;;;;;;5060978;28;20024;-40
2023/06/06 04:37:03;;;;;;;6.38;3.60;;;14.10;99.90;;;;;;5056771;28;20406;-40
2023/06/06 04:39:38;;;;;;;7.07;4.18;;;14.10;99.90;;;;;;5052280;28;20036;-41
2023/06/06 04:42:05;;;;;;;5.78;3.80;;;14.10;99.90;;;;;;5058583;28;20025;-40
2023/06/06 04:44:41;;;;;;;5.43;3.22;;;14.10;99.90;;;;;;5058747;28;20225;-40
2023/06/06 04:47:09;;;;;;;5.10;3.42;;;14.20;99.90;;;;;;5058915;28;20059;-40
2023/06/06 04:49:38;;;;;;;5.60;3.60;;;14.20;99.90;;;;;;5058312;28;20418;-40
2023/06/06 04:52:06;;;;;;;5.75;3.70;;;14.10;99.90;;;;;;5057508;28;20139;-40
2023/06/06 04:54:33;;;;;;;6.00;3.67;;;14.20;99.90;;;;;;5057425;28;20040;-40
2023/06/06 04:57:02;;;;;;;4.20;3.50;;;14.30;99.90;;;;;;5056160;28;20518;-40
2023/06/06 04:59:29;;;;;;;5.28;3.15;;;14.30;99.90;;;;;;5048258;28;20025;-40
2023/06/06 05:01:58;;;;;;;4.82;3.13;;;14.40;99.90;;;;;;5052778;28;20024;-40
2023/06/06 05:04:24;;;;;;;5.53;3.53;;;14.40;99.90;;;;;;5059817;28;20125;-40
2023/06/06 05:06:50;;;;;;;5.90;3.90;;;14.40;99.90;;;;;;5054908;28;20021;-40
2023/06/06 05:09:16;;;;;;;5.30;3.03;;;14.50;99.90;;;;;;5055563;28;20020;-40
2023/06/06 05:11:46;;;;;;;6.55;3.90;;;14.50;99.90;;;;;;5057730;28;20368;-40
2023/06/06 05:14:12;;;;;;;8.38;3.80;;;14.50;99.90;;;;;;5057513;28;20032;-40
2023/06/06 05:16:38;;;;;;;5.13;3.40;;;14.60;99.90;;;;;;5060906;28;20406;-40
2023/06/06 05:19:04;;;;;;;4.22;3.00;;;14.60;99.90;;;;;;5062211;28;20510;-40
2023/06/06 05:21:30;;;;;;;5.60;3.00;;;14.60;99.90;;;;;;5053635;28;20029;-40
2023/06/06 05:23:58;;;;;;;5.75;3.13;;;14.60;99.90;;;;;;5058680;28;20020;-42
2023/06/06 05:26:25;;;;;;;7.85;3.28;;;14.70;99.90;;;;;;5057029;28;20017;-41
2023/06/06 05:28:51;;;;;;;9.07;3.55;;;14.70;99.90;;;;;;5056796;28;20028;-42
2023/06/06 05:31:20;;;;;;;6.45;3.55;;;14.80;99.90;;;;;;5048814;28;20037;-41
2023/06/06 05:33:47;;;;;;;4.88;3.63;;;14.80;99.90;;;;;;5057198;28;20564;-43
2023/06/06 05:36:13;;;;;;;6.82;3.72;;;14.90;99.90;;;;;;5059287;28;20032;-41
2023/06/06 05:38:39;;;;;;;6.30;3.75;;;14.90;99.90;;;;;;5057475;28;20455;-42
2023/06/06 05:41:05;;;;;;;4.38;3.15;;;15.00;99.90;;;;;;5055516;28;20031;-42
2023/06/06 05:43:33;;;;;;;5.53;3.58;;;15.00;99.90;;;;;;5054705;28;20530;-42
2023/06/06 05:46:01;;;;;;;7.85;3.58;;;15.10;99.90;;;;;;5062643;28;20417;-41
2023/06/06 05:48:27;;;;;;;6.47;3.50;;;15.10;99.90;;;;;;5050709;28;20060;-40
2023/06/06 05:50:52;;;;;;;4.93;3.55;;;15.20;99.90;;;;;;5056186;28;20127;-40
2023/06/06 05:53:18;;;;;;;3.65;3.28;;;15.20;99.90;;;;;;5053441;28;20033;-40
2023/06/06 05:55:47;;;;;;;5.43;3.40;;;15.30;99.90;;;;;;5056914;28;20031;-40
2023/06/06 05:58:12;;;;;;;8.32;3.40;;;15.40;99.90;;;;;;5050854;28;20363;-40
2023/06/06 06:00:38;;;;;;;7.40;3.05;;;15.40;99.90;;;;;;5052058;28;20033;-39
2023/06/06 06:03:10;;;;;;;6.55;3.63;;;15.50;99.90;;;;;;5061107;28;20070;-40
2023/06/06 06:05:36;;;;;;;5.68;3.47;;;15.60;99.90;;;;;;5052905;28;20059;-39
2023/06/06 06:08:02;;;;;;;8.57;3.50;;;15.80;99.90;;;;;;5057626;28;20059;-40
2023/06/06 06:10:30;;;;;;;4.15;2.97;;;15.80;99.90;;;;;;5056262;28;20098;-40
2023/06/06 06:12:55;;;;;;;6.93;3.30;;;15.90;99.90;;;;;;5057152;28;20033;-40
2023/06/06 06:15:21;;;;;;;6.55;3.47;;;16.00;99.90;;;;;;5052111;28;20444;-47
2023/06/06 06:17:48;;;;;;;7.05;3.88;;;16.10;99.90;;;;;;5059747;28;20125;-40
2023/06/06 06:20:15;;;;;;;6.15;3.20;;;16.20;99.90;;;;;;5056665;28;20025;-41
2023/06/06 06:22:42;;;;;;;9.02;3.65;;;16.30;99.90;;;;;;5064464;28;20032;-40
2023/06/06 06:25:12;;;;;;;6.93;3.42;;;16.40;99.90;;;;;;5061334;28;20029;-40
2023/06/06 06:27:42;;;;;;;3.55;2.72;;;16.60;99.90;;;;;;5065862;28;20021;-40
2023/06/06 06:30:09;;;;;;;6.82;3.22;;;16.60;99.90;;;;;;5051899;28;20378;-41
2023/06/06 06:32:36;;;;;;;7.63;3.20;;;16.80;99.90;;;;;;5058440;28;20096;-40
2023/06/06 06:35:03;;;;;;;4.22;3.55;;;16.80;99.90;;;;;;5057245;28;20013;-40
2023/06/06 06:37:30;;;;;;;6.47;3.03;;;17.00;99.90;;;;;;5058548;28;20496;-40
2023/06/06 06:39:57;;;;;;;4.07;2.85;;;17.20;99.90;;;;;;5057936;28;20021;-40
2023/06/06 06:42:23;;;;;;;5.63;2.75;;;17.40;99.90;;;;;;5055826;28;20025;-39
2023/06/06 06:44:49;;;;;;;5.63;3.08;;;17.60;99.60;;;;;;5063413;28;20025;-39
2023/06/06 06:47:15;;;;;;;3.97;3.10;;;17.90;99.90;;;;;;5064052;28;20095;-40
2023/06/06 06:49:41;;;;;;;8.40;3.10;;;18.00;99.40;;;;;;5058551;28;20036;-41
2023/06/06 06:52:10;;;;;;;5.28;3.30;;;18.10;98.20;;;;;;5062453;28;20025;-41
2023/06/06 06:54:52;;;;;;;6.55;3.28;;;18.10;97.70;;;;;;5052697;28;20112;-41
2023/06/06 06:57:19;;;;;;;4.47;3.08;;;18.20;97.30;;;;;;5060141;28;20446;-40
2023/06/06 06:59:45;;;;;;;8.32;2.72;;;18.20;97.10;;;;;;5061459;28;20052;-40
2023/06/06 07:02:11;;;;;;;7.00;3.45;;;18.20;97.20;;;;;;5055820;28;20075;-40
2023/06/06 07:04:37;;;;;;;5.18;3.30;;;18.30;97.40;;;;;;5060042;28;20021;-40
2023/06/06 07:07:03;;;;;;;5.10;3.05;;;18.50;96.80;;;;;;5061894;28;20402;-40
2023/06/06 07:09:29;;;;;;;4.18;3.33;;;18.40;96.80;;;;;;5050047;28;20047;-41
2023/06/06 07:11:54;;;;;;;9.63;3.28;;;18.50;96.70;;;;;;5056929;28;20138;-41
2023/06/06 07:14:20;;;;;;;5.97;3.00;;;18.60;96.10;;;;;;5062976;28;20533;-41
2023/06/06 07:16:48;;;;;;;5.43;3.00;;;18.70;96.20;;;;;;5051199;28;20074;-41
2023/06/06 07:19:14;;;;;;;5.22;3.28;;;18.70;95.80;;;;;;5053211;28;20021;-41
2023/06/06 07:21:39;;;;;;;4.18;2.85;;;18.50;95.00;;;;;;5050933;28;20056;-43
2023/06/06 07:24:05;;;;;;;4.95;3.03;;;18.70;95.60;;;;;;5061072;28;20031;-41
2023/06/06 07:26:31;;;;;;;6.40;3.25;;;18.90;95.70;;;;;;5061302;28;20032;-40
2023/06/06 07:28:57;;;;;;;4.82;2.80;;;19.10;95.50;;;;;;5064970;28;20099;-41
2023/06/06 07:31:24;;;;;;;3.97;3.20;;;19.20;96.00;;;;;;5057555;28;20437;-40
2023/06/06 07:33:50;;;;;;;5.80;3.10;;;19.40;95.10;;;;;;5062290;28;20029;-40
2023/06/06 07:36:16;;;;;;;5.22;3.38;;;19.60;95.00;;;;;;5063744;28;20039;-42
2023/06/06 07:38:41;;;;;;;5.60;3.20;;;19.80;94.40;;;;;;5062905;28;20029;-41
2023/06/06 07:41:07;;;;;;;8.70;3.70;;;19.90;94.60;;;;;;5064667;28;20029;-40
2023/06/06 07:43:32;;;;;;;4.65;3.28;;;20.20;93.90;;;;;;5055109;28;20033;-42
2023/06/06 07:45:58;;;;;;;4.95;3.15;;;20.40;93.00;;;;;;5056793;28;20016;-41
2023/06/06 07:48:24;;;;;;;7.10;3.85;;;20.70;92.80;;;;;;5062431;28;20024;-41
2023/06/06 07:50:50;;;;;;;4.57;3.13;;;20.80;92.30;;;;;;5059839;28;20549;-42
2023/06/06 07:53:16;;;;;;;4.50;2.78;;;21.00;91.80;;;;;;5056377;28;20025;-40
2023/06/06 07:55:43;;;;;;;6.75;3.10;;;21.10;90.90;;;;;;5058972;28;20025;-41
2023/06/06 07:58:11;;;;;;;6.20;3.15;;;21.40;90.60;;;;;;5053841;28;20020;-42
2023/06/06 08:00:40;;;;;;;4.50;3.20;;;21.50;89.60;;;;;;5056661;28;20036;-41
2023/06/06 08:03:07;;;;;;;5.57;3.63;;;21.60;89.90;;;;;;5066419;28;20805;-41
2023/06/06 08:05:33;;;;;;;7.68;3.67;;;21.60;87.70;;;;;;5057878;28;20021;-43
2023/06/06 08:08:00;;;;;;;5.60;3.60;;;21.70;88.50;;;;;;5060030;28;20107;-41
2023/06/06 08:10:26;;;;;;;4.75;3.30;;;21.90;89.10;;;;;;5058528;28;20107;-44
2023/06/06 08:12:52;;;;;;;5.57;3.88;;;21.90;87.40;;;;;;5061081;28;20025;-41
2023/06/06 08:15:18;;;;;;;4.28;3.28;;;22.10;88.00;;;;;;5055833;28;20035;-41
2023/06/06 08:17:44;;;;;;;6.03;3.65;;;22.30;86.80;;;;;;5058937;28;20039;-41
2023/06/06 08:20:11;;;;;;;4.50;3.58;;;22.60;84.40;;;;;;5063063;28;20025;-41
2023/06/06 08:22:38;;;;;;;3.50;3.13;;;22.70;82.60;;;;;;5056262;28;20029;-41
2023/06/06 08:25:07;;;;;;;6.45;3.13;;;22.80;81.20;;;;;;5058842;28;20384;-41
2023/06/06 08:27:34;;;;;;;7.45;3.25;;;22.90;81.80;;;;;;5057386;28;20394;-41
2023/06/06 08:30:00;;;;;;;6.72;3.40;;;23.10;79.90;;;;;;5059009;28;20029;-41
2023/06/06 08:32:26;;;;;;;5.45;3.53;;;23.00;78.40;;;;;;5060012;28;20021;-40
2023/06/06 08:34:52;;;;;;;8.95;3.53;;;23.00;80.30;;;;;;5056168;28;20025;-41
2023/06/06 08:37:18;;;;;;;8.15;3.47;;;23.20;79.60;;;;;;5061118;28;20044;-40
2023/06/06 08:39:44;;;;;;;3.80;3.20;;;23.40;79.10;;;;;;5055465;28;20083;-40
2023/06/06 08:42:14;;;;;;;3.83;2.95;;;23.60;79.40;;;;;;5057791;28;20082;-42
2023/06/06 08:44:42;;;;;;;5.78;3.10;;;23.70;79.00;;;;;;5056724;28;20032;-41
2023/06/06 08:47:09;;;;;;;6.40;3.35;;;23.90;76.90;;;;;;5058812;28;20292;-41
2023/06/06 08:49:37;;;;;;;4.95;2.78;;;24.10;76.80;;;;;;5066869;28;20013;-41
2023/06/06 08:52:05;;;;;;;7.15;3.42;;;24.50;76.40;;;;;;5052580;28;20565;-41
2023/06/06 08:54:32;;;;;;;9.50;2.92;;;25.10;72.90;;;;;;5057720;28;20059;-41
2023/06/06 08:56:59;;;;;;;6.20;3.67;;;25.50;71.20;;;;;;5057322;28;20373;-41
2023/06/06 08:59:25;;;;;;;9.70;3.15;;;25.70;70.90;;;;;;5056646;28;20035;-40
2023/06/06 09:01:53;;;;;;;6.22;2.97;;;25.60;70.60;;;;;;5057406;28;20416;-41
2023/06/06 09:04:20;;;;;;;8.88;3.55;;;26.00;70.90;;;;;;5056709;28;20040;-41
2023/06/06 09:06:46;;;;;;;6.57;3.08;;;26.40;67.60;;;;;;5060580;28;20100;-41
2023/06/06 09:09:15;;;;;;;6.13;2.92;;;27.70;67.30;;;;;;5057359;28;20100;-43
2023/06/06 09:11:41;;;;;;;13.98;3.60;;;29.60;63.00;;;;;;5061664;28;20058;-44
2023/06/06 09:14:07;;;;;;;5.88;2.95;;;30.80;60.30;;;;;;5057970;28;20071;-42
2023/06/06 09:16:32;;;;;;;4.75;2.85;;;31.60;56.40;;;;;;5060830;28;20029;-43
2023/06/06 09:19:01;;;;;;;3.00;2.40;;;32.10;55.40;;;;;;5056515;28;20069;-43
2023/06/06 09:21:33;;;;;;;4.68;2.50;;;33.00;53.50;;;;;;5059163;28;20024;-44
2023/06/06 09:23:59;;;;;;;4.50;2.70;;;34.00;51.80;;;;;;5056467;28;20046;-43
2023/06/06 09:26:26;;;;;;;2.92;2.33;;;34.60;50.50;;;;;;5055617;28;20021;-43
2023/06/06 09:28:54;;;;;;;4.05;2.92;;;34.80;48.90;;;;;;5053122;28;20052;-42
2023/06/06 09:31:30;;;;;;;12.32;2.70;;;35.10;48.10;;;;;;5055081;28;20013;-43
2023/06/06 09:33:57;;;;;;;5.00;2.85;;;35.10;46.60;;;;;;5051915;28;20055;-43
2023/06/06 09:36:29;;;;;;;3.90;2.50;;;33.90;46.40;;;;;;5045858;28;20021;-43
2023/06/06 09:38:58;;;;;;;5.78;2.63;;;33.20;47.10;;;;;;5058124;28;20522;-43
2023/06/06 09:41:27;;;;;;;4.93;2.42;;;32.60;47.30;;;;;;5055522;28;20060;-43
2023/06/06 09:43:52;;;;;;;5.43;2.67;;;32.40;49.70;;;;;;5065335;28;20023;-44
2023/06/06 09:46:18;;;;;;;4.25;2.47;;;33.10;49.10;;;;;;5062390;28;20029;-43
2023/06/06 09:48:58;;;;;;;9.70;3.28;;;33.30;47.50;;;;;;5056322;28;20020;-42
2023/06/06 09:51:24;;;;;;;11.82;3.10;;;34.90;46.60;;;;;;5048630;28;20506;-43
2023/06/06 09:53:51;;;;;;;4.93;2.50;;;35.40;44.80;;;;;;5057094;28;20051;-43
2023/06/06 09:56:22;;;;;;;5.13;2.38;;;35.90;44.20;;;;;;5060191;28;20063;-44
2023/06/06 09:58:54;;;;;;;6.60;2.50;;;34.80;44.30;;;;;;5057124;28;20016;-43
2023/06/06 10:01:26;;;;;;;3.88;2.85;;;34.00;44.40;;;;;;5057699;28;20047;-44
2023/06/06 10:03:56;;;;;;;5.38;3.22;;;32.60;45.80;;;;;;5063665;28;20024;-42
2023/06/06 10:06:24;;;;;;;5.18;2.45;;;31.30;47.80;;;;;;5065336;28;20535;-42
2023/06/06 10:08:52;;;;;;;6.93;2.70;;;30.60;48.50;;;;;;5057411;28;20025;-44
2023/06/06 10:11:20;;;;;;;2.95;2.65;;;29.50;49.60;;;;;;5066703;28;20044;-46
2023/06/06 10:13:47;;;;;;;18.23;8.77;;;29.10;51.30;;;;;;5055701;28;20454;-43
2023/06/06 10:16:14;;;;;;;4.57;3.20;;;28.60;52.20;;;;;;5061250;28;20025;-41
2023/06/06 10:18:41;;;;;;;12.60;4.47;;;27.90;53.20;;;;;;5064192;28;20047;-50
2023/06/06 10:21:08;;;;;;;12.90;3.92;;;28.60;52.60;;;;;;5052839;28;20095;-49
2023/06/06 10:23:34;;;;;;;5.32;3.05;;;29.70;51.40;;;;;;5058974;28;20045;-50
2023/06/06 10:26:02;;;;;;;5.38;3.33;;;30.90;50.30;;;;;;5066497;28;20510;-50
2023/06/06 10:28:31;;;;;;;33.03;4.93;;;31.30;48.10;;;;;;5064853;28;20478;-49
2023/06/06 10:31:19;;;;;;;9.25;3.15;;;32.70;48.80;;;;;;5065680;28;20041;-50
2023/06/06 10:33:53;;;;;;;12.98;2.92;;;34.30;45.60;;;;;;5064026;28;20024;-52
2023/06/06 10:36:19;;;;;;;32.55;5.78;;;35.10;45.50;;;;;;5057270;28;20091;-51
2023/06/06 10:39:19;;;;;;;42.05;5.57;;;36.10;46.30;;;;;;5056893;28;20029;-53
2023/06/06 10:41:51;;;;;;;61.33;8.30;;;36.30;44.30;;;;;;5059636;28;20412;-53
2023/06/06 10:44:32;;;;;;;14.00;3.90;;;36.20;43.40;;;;;;5058260;28;20028;-52
2023/06/06 10:47:27;;;;;;;82.03;12.02;;;36.50;43.40;;;;;;5063525;28;20421;-53
2023/06/06 10:50:07;;;;;;;16.00;3.58;;;37.40;43.30;;;;;;5064322;28;20021;-52
2023/06/06 10:52:48;;;;;;;60.75;9.13;;;37.60;42.00;;;;;;5054580;28;20028;-53
2023/06/06 10:55:38;;;;;;;18.25;3.47;;;38.40;42.50;;;;;;5054486;28;20063;-53
2023/06/06 10:58:13;;;;;;;10.45;3.10;;;38.10;41.40;;;;;;5063711;28;20529;-52
2023/06/06 11:00:41;;;;;;;33.33;5.68;;;36.80;41.90;;;;;;5058984;28;20508;-52
2023/06/06 11:03:09;;;;;;;46.00;8.73;;;35.50;42.20;;;;;;5058445;28;20115;-51
2023/06/06 11:06:01;;;;;;;5.93;2.88;;;34.00;43.50;;;;;;5069536;28;20020;-50
2023/06/06 11:08:33;;;;;;;9.88;3.08;;;31.90;45.70;;;;;;5058862;28;20215;-49
2023/06/06 11:11:21;;;;;;;16.48;4.53;;;31.30;46.70;;;;;;5068567;28;20024;-52
2023/06/06 11:14:00;;;;;;;39.20;6.85;;;30.80;47.40;;;;;;5060660;28;20120;-49
2023/06/06 11:16:38;;;;;;;11.55;3.75;;;30.60;48.60;;;;;;5060904;28;20520;-49
2023/06/06 11:19:08;;;;;;;15.27;4.13;;;30.70;48.90;;;;;;5063714;28;20036;-49
2023/06/06 11:21:41;;;;;;;9.70;3.95;;;29.80;48.90;;;;;;5062960;28;20559;-50
2023/06/06 11:24:09;;;;;;;18.23;4.47;;;30.40;49.50;;;;;;5064959;28;20115;-52
2023/06/06 11:26:37;;;;;;;17.80;4.35;;;31.00;48.20;;;;;;5061129;28;20041;-49
2023/06/06 11:29:04;;;;;;;14.90;4.40;;;31.10;47.90;;;;;;5062387;28;20552;-49
2023/06/06 11:31:35;;;;;;;60.42;9.55;;;31.20;48.60;;;;;;5061218;28;20120;-49
2023/06/06 11:34:08;;;;;;;20.95;5.22;;;31.20;49.00;;;;;;5062992;28;20029;-51
2023/06/06 11:36:35;;;;;;;21.17;5.28;;;31.20;47.50;;;;;;5060862;28;20082;-50
2023/06/06 11:39:04;;;;;;;7.07;3.35;;;31.20;48.40;;;;;;5063844;28;20029;-49
2023/06/06 11:41:30;;;;;;;9.70;3.90;;;31.50;47.20;;;;;;5065024;28;20498;-49
2023/06/06 11:43:55;;;;;;;16.63;4.32;;;31.70;46.30;;;;;;5062719;28;20466;-50
2023/06/06 11:46:21;;;;;;;18.17;4.38;;;31.60;47.40;;;;;;5071144;28;20033;-50
2023/06/06 11:48:55;;;;;;;8.05;3.13;;;31.60;46.30;;;;;;5068367;28;20457;-50
2023/06/06 11:51:20;;;;;;;11.57;3.78;;;31.70;46.00;;;;;;5064195;28;20573;-52
2023/06/06 11:53:47;;;;;;;6.35;2.53;;;32.40;46.60;;;;;;5070703;28;20115;-52
2023/06/06 11:56:17;;;;;;;6.38;2.92;;;32.10;44.50;;;;;;5069773;28;20081;-50
2023/06/06 11:58:42;;;;;;;4.18;2.80;;;31.80;44.80;;;;;;5071350;28;20029;-50
2023/06/06 12:01:12;;;;;;;2.95;2.65;;;32.10;43.90;;;;;;5070232;28;20478;-49
2023/06/06 12:03:40;;;;;;;7.63;3.30;;;31.10;44.70;;;;;;5071281;28;20027;-49
2023/06/06 12:06:07;;;;;;;4.35;2.90;;;30.50;46.40;;;;;;5070616;28;20048;-51
2023/06/06 12:08:34;;;;;;;6.68;3.15;;;30.50;46.40;;;;;;5064926;28;20021;-51
2023/06/06 12:11:22;;;;;;;7.43;3.60;;;29.90;47.30;;;;;;5058997;28;20406;-49
2023/06/06 12:13:48;;;;;;;14.95;4.07;;;29.40;46.30;;;;;;5061165;28;20032;-49
2023/06/06 12:16:24;;;;;;;7.90;3.60;;;28.80;46.50;;;;;;5056066;28;20651;-48
2023/06/06 12:18:51;;;;;;;7.82;2.60;;;28.40;47.20;;;;;;5062079;28;20401;-50
2023/06/06 12:21:17;;;;;;;3.75;2.60;;;28.10;49.30;;;;;;5060392;28;20047;-51
2023/06/06 12:23:44;;;;;;;4.72;3.25;;;27.90;47.90;;;;;;5059287;28;20024;-49
2023/06/06 12:26:11;;;;;;;7.50;3.35;;;27.70;48.20;;;;;;5068431;28;20540;-51
2023/06/06 12:28:53;;;;;;;4.25;3.05;;;27.80;47.70;;;;;;5066698;28;20036;-48
2023/06/06 12:31:20;;;;;;;4.85;2.92;;;28.00;47.10;;;;;;5061957;28;20025;-48
2023/06/06 12:33:46;;;;;;;4.88;3.45;;;28.00;46.90;;;;;;5062224;28;20024;-50
2023/06/06 12:36:19;;;;;;;3.75;3.03;;;27.90;47.70;;;;;;5056700;28;20033;-48
2023/06/06 12:38:57;;;;;;;4.53;3.25;;;27.90;46.40;;;;;;5054443;28;20074;-51
2023/06/06 12:41:22;;;;;;;5.03;3.30;;;27.90;47.10;;;;;;5065993;28;20024;-49
2023/06/06 12:43:48;;;;;;;4.93;3.30;;;27.80;46.70;;;;;;5070070;28;20048;-48
2023/06/06 12:46:13;;;;;;;4.15;3.00;;;27.80;48.40;;;;;;5064499;28;20092;-49
2023/06/06 12:48:39;;;;;;;4.65;3.17;;;27.70;48.20;;;;;;5053810;28;20036;-50
2023/06/06 12:51:10;;;;;;;5.43;3.30;;;27.60;47.80;;;;;;5065391;28;20483;-50